createdAt,value
2023-02-19T00:01:25.047Z,27.5
2023-02-19T00:06:25.848Z,27.8
2023-02-19T00:11:26.447Z,25.5
2023-02-19T00:16:26.908Z,26.4
2023-02-19T00:21:27.453Z,25.9
2023-02-19T00:26:28.008Z,28.2
2023-02-19T00:31:30.455Z,25.7
2023-02-19T00:36:32.138Z,25.8
2023-02-19T00:41:32.680Z,25.8
2023-02-19T00:46:33.200Z,23.6
2023-02-19T00:51:33.729Z,18.1
2023-02-19T00:56:34.155Z,15
2023-02-19T01:01:34.958Z,13.7
2023-02-19T01:06:35.693Z,11.9
2023-02-19T01:11:36.293Z,11.1
2023-02-19T01:16:36.928Z,10.9
2023-02-19T01:21:37.705Z,10.2
2023-02-19T01:27:00.862Z,11.6
2023-02-19T01:32:01.688Z,10.8
2023-02-19T01:37:02.349Z,8.6
2023-02-19T01:42:02.784Z,8.6
2023-02-19T01:47:03.198Z,11.1
2023-02-19T01:52:03.778Z,19.1
2023-02-19T01:57:04.259Z,19.6
2023-02-19T02:02:05.266Z,21.3
2023-02-19T02:07:06.178Z,22.8
2023-02-19T02:12:06.735Z,23.3
2023-02-19T02:17:07.291Z,24.3
2023-02-19T02:22:08.134Z,28.5
2023-02-19T02:27:08.620Z,25.4
2023-02-19T02:32:09.241Z,26.7
2023-02-19T02:37:09.938Z,23.9
2023-02-19T02:42:10.775Z,23.5
2023-02-19T02:47:11.300Z,23.2
2023-02-19T02:52:12.611Z,22.2
2023-02-19T02:57:13.048Z,19.6
2023-02-19T03:02:13.990Z,18.1
2023-02-19T03:07:14.674Z,17.7
2023-02-19T03:17:15.857Z,17.3
2023-02-19T03:22:16.471Z,16
2023-02-19T03:27:17.043Z,19.1
2023-02-19T03:32:17.614Z,22.6
2023-02-19T03:37:18.498Z,22.7
2023-02-19T03:42:21.603Z,22.6
2023-02-19T03:47:22.076Z,23
2023-02-19T03:52:22.824Z,25.2
2023-02-19T03:57:23.374Z,24.9
2023-02-19T04:02:24.118Z,27.1
2023-02-19T04:07:24.917Z,25.8
2023-02-19T04:12:25.572Z,28.1
2023-02-19T04:17:26.119Z,28.8
2023-02-19T04:22:26.824Z,30.5
2023-02-19T04:27:27.312Z,34
2023-02-19T04:32:28.673Z,29.6
2023-02-19T04:37:29.356Z,31.3
2023-02-19T04:42:29.896Z,28.2
2023-02-19T04:47:30.448Z,29.9
2023-02-19T04:52:31.090Z,29.1
2023-02-19T04:57:31.740Z,31.8
2023-02-19T05:02:32.790Z,31.6
2023-02-19T05:07:33.440Z,37.1
2023-02-19T05:12:33.976Z,37.5
2023-02-19T05:17:34.574Z,38.3
2023-02-19T05:22:35.281Z,38.4
2023-02-19T05:27:36.095Z,38.4
2023-02-19T05:32:36.624Z,37.9
2023-02-19T05:37:37.253Z,39.7
2023-02-19T05:42:37.858Z,41.2
2023-02-19T05:47:38.334Z,38.8
2023-02-19T05:52:38.867Z,39.7
2023-02-19T05:57:40.845Z,38.8
2023-02-19T06:02:42.651Z,40.1
2023-02-19T06:07:43.243Z,35.7
2023-02-19T06:12:43.748Z,34.5
2023-02-19T06:17:44.478Z,33.5
2023-02-19T06:22:45.507Z,35
2023-02-19T06:27:46.458Z,32.5
2023-02-19T06:32:46.970Z,32.9
2023-02-19T06:37:47.462Z,31.1
2023-02-19T06:42:47.875Z,28.1
2023-02-19T06:47:48.367Z,27.9
2023-02-19T06:52:48.814Z,27.6
2023-02-19T06:57:49.211Z,26.2
2023-02-19T07:02:49.669Z,26.4
2023-02-19T07:07:50.217Z,26.1
2023-02-19T07:12:50.551Z,25.2
2023-02-19T07:17:51.006Z,24.1
2023-02-19T07:22:51.362Z,24
2023-02-19T07:27:51.773Z,22.4
2023-02-19T07:32:52.160Z,22
2023-02-19T07:37:52.537Z,21.7
2023-02-19T07:42:52.957Z,21.7
2023-02-19T07:47:53.299Z,20.8
2023-02-19T07:52:53.676Z,21.1
2023-02-19T07:57:54.108Z,20.5
2023-02-19T08:02:54.515Z,20.9
2023-02-19T08:07:55.416Z,21.2
2023-02-19T08:12:55.791Z,20.4
2023-02-19T08:17:56.241Z,20.6
2023-02-19T08:22:56.774Z,21.3
2023-02-19T08:27:57.553Z,20.4
2023-02-19T08:32:58.120Z,20.8
2023-02-19T08:37:58.631Z,20.3
2023-02-19T08:42:59.028Z,21
2023-02-19T08:47:59.598Z,22.4
2023-02-19T08:53:00.543Z,23.3
2023-02-19T08:58:01.264Z,24.2
2023-02-19T09:03:01.710Z,26.4
2023-02-19T09:08:02.144Z,28
2023-02-19T09:13:02.689Z,32.6
2023-02-19T09:18:03.401Z,35.2
2023-02-19T09:23:03.979Z,43
2023-02-19T09:28:04.939Z,49.1
2023-02-19T09:33:05.501Z,56.9
2023-02-19T09:38:05.975Z,50.6
2023-02-19T09:43:06.892Z,45.1
2023-02-19T09:48:07.383Z,40
2023-02-19T09:53:08.157Z,33.7
2023-02-19T09:58:08.601Z,32.8
2023-02-19T10:03:09.218Z,32.8
2023-02-19T10:08:09.809Z,30.6
2023-02-19T10:13:10.439Z,30.5
2023-02-19T10:18:12.270Z,29.2
2023-02-19T10:23:13.011Z,32.9
2023-02-19T10:28:13.597Z,34.3
2023-02-19T10:33:14.119Z,38.8
2023-02-19T10:38:15.046Z,45.2
2023-02-19T10:43:15.643Z,52
2023-02-19T10:48:16.066Z,59.5
2023-02-19T10:53:17.185Z,57.3
2023-02-19T10:58:17.688Z,51.4
2023-02-19T11:03:18.110Z,44.9
2023-02-19T11:08:18.755Z,48.8
2023-02-19T11:13:21.986Z,39.7
2023-02-19T11:18:22.468Z,34.8
2023-02-19T11:23:23.373Z,36.8
2023-02-19T11:28:23.896Z,39.5
2023-02-19T11:33:24.387Z,43.3
2023-02-19T11:38:24.916Z,47.9
2023-02-19T11:43:25.673Z,24.5
2023-02-19T11:48:26.082Z,22.7
2023-02-19T11:53:27.103Z,24.4
2023-02-19T11:58:27.612Z,25
2023-02-19T12:03:28.056Z,25.9
2023-02-19T12:08:28.883Z,24.7
2023-02-19T12:13:29.311Z,25.5
2023-02-19T12:18:29.717Z,27.3
2023-02-19T12:23:30.649Z,21.5
2023-02-19T12:28:31.194Z,20.1
2023-02-19T12:33:31.907Z,19.4
2023-02-19T12:38:32.391Z,19.9
2023-02-19T12:43:33.059Z,17.7
2023-02-19T12:48:33.584Z,16.9
2023-02-19T12:53:34.075Z,16.8
2023-02-19T12:58:34.500Z,18.5
2023-02-19T13:03:34.962Z,16.1
2023-02-19T13:08:36.508Z,19.8
2023-02-19T13:13:37.289Z,15.8
2023-02-19T13:18:37.778Z,15.1
2023-02-19T13:23:38.346Z,21.5
2023-02-19T13:28:39.277Z,15.8
2023-02-19T13:33:39.756Z,16
2023-02-19T13:38:40.369Z,16.4
2023-02-19T13:43:41.001Z,14.8
2023-02-19T13:48:41.490Z,12.2
2023-02-19T13:53:44.295Z,11.6
2023-02-19T13:58:44.680Z,14.4
2023-02-19T14:03:45.185Z,10.5
2023-02-19T14:08:45.770Z,9.2
2023-02-19T14:13:46.207Z,9.2
2023-02-19T14:18:46.573Z,9.2
2023-02-19T14:23:47.093Z,7.7
2023-02-19T14:28:47.710Z,7.1
2023-02-19T14:33:48.189Z,6.8
2023-02-19T14:38:48.783Z,8.4
2023-02-19T14:43:49.172Z,7.1
2023-02-19T14:53:55.894Z,7.4
2023-02-19T14:58:56.482Z,6.2
2023-02-19T15:03:56.969Z,5.8
2023-02-19T15:08:57.952Z,4.2
2023-02-19T15:13:58.470Z,1.2
2023-02-19T15:18:58.805Z,2
2023-02-19T15:23:59.267Z,4.1
2023-02-19T15:28:59.657Z,5.5
2023-02-19T15:34:00.029Z,10.8
2023-02-19T15:39:00.516Z,12.3
2023-02-19T15:44:01.313Z,13.5
2023-02-19T15:49:02.070Z,18
2023-02-19T15:54:02.939Z,19
2023-02-19T15:59:04.045Z,21.7
2023-02-19T16:04:04.544Z,21.3
2023-02-19T16:09:05.055Z,23.4
2023-02-19T16:14:06.546Z,23.7
2023-02-19T16:19:06.964Z,22.6
2023-02-19T16:24:07.803Z,18.3
2023-02-19T16:29:08.273Z,18
2023-02-19T16:34:08.695Z,19
2023-02-19T16:39:09.164Z,17.7
2023-02-19T16:44:09.605Z,19.2
2023-02-19T16:49:09.987Z,16.6
2023-02-19T16:54:10.645Z,14
2023-02-19T16:59:11.426Z,10.7
2023-02-19T17:04:11.986Z,12.6
2023-02-19T17:09:12.472Z,11.7
2023-02-19T17:14:12.867Z,13.1
2023-02-19T17:19:16.545Z,15.9
2023-02-19T17:24:18.164Z,14.8
2023-02-19T17:29:18.925Z,15.9
2023-02-19T17:34:19.604Z,15.1
2023-02-19T17:39:20.897Z,16.7
2023-02-19T17:44:21.458Z,16.9
2023-02-19T17:49:21.885Z,15.8
2023-02-19T17:54:23.149Z,16.6
2023-02-19T17:59:23.928Z,17.2
2023-02-19T18:04:24.398Z,19.7
2023-02-19T18:09:25.008Z,17.8
2023-02-19T18:14:25.401Z,19.1
2023-02-19T18:19:26.070Z,19.1
2023-02-19T18:24:27.022Z,18.2
2023-02-19T18:29:30.192Z,18.5
2023-02-19T18:34:30.618Z,27.2
2023-02-19T18:39:31.857Z,21.3
2023-02-19T18:44:32.289Z,12.6
2023-02-19T18:49:33.277Z,9.7
2023-02-19T18:54:34.288Z,7.8
2023-02-19T18:59:35.267Z,7
2023-02-19T19:04:36.025Z,6.3
2023-02-19T19:09:39.367Z,7
2023-02-19T19:14:40.854Z,6.5
2023-02-19T19:19:42.059Z,5.6
2023-02-19T19:24:43.488Z,4.1
2023-02-19T19:29:43.986Z,4.5
2023-02-19T19:34:44.986Z,4
2023-02-19T19:39:45.422Z,4.4
2023-02-19T19:44:45.951Z,5.7
2023-02-19T19:49:46.449Z,7.9
2023-02-19T19:54:46.935Z,6.7
2023-02-19T19:59:47.461Z,5.7
2023-02-19T20:04:48.073Z,5.9
2023-02-19T20:09:48.482Z,7.4
2023-02-19T20:14:48.985Z,10.7
2023-02-19T20:19:49.428Z,13.3
2023-02-19T20:24:49.894Z,10.4
2023-02-19T20:29:50.554Z,9
2023-02-19T20:34:51.015Z,9.9
2023-02-19T20:39:51.382Z,11.1
2023-02-19T20:44:51.971Z,16
2023-02-19T20:49:54.446Z,16.5
2023-02-19T20:54:55.264Z,19.9
2023-02-19T20:59:55.881Z,16.9
2023-02-19T21:04:56.243Z,18.6
2023-02-19T21:10:01.694Z,21.2
2023-02-19T21:15:02.230Z,17.1
2023-02-19T21:20:05.497Z,16.7
2023-02-19T21:25:05.844Z,10.4
2023-02-19T21:30:06.430Z,13.1
2023-02-19T21:35:06.963Z,11.2
2023-02-19T21:40:07.601Z,14.1
2023-02-19T21:45:08.141Z,9.6
2023-02-19T21:50:08.604Z,13.3
2023-02-19T21:55:09.052Z,26.4
2023-02-19T22:00:09.573Z,13.6
2023-02-19T22:05:10.110Z,11.5
2023-02-19T22:10:10.564Z,8
2023-02-19T22:15:11.128Z,7.8
2023-02-19T22:20:11.588Z,7.2
2023-02-19T22:25:12.050Z,6.9
2023-02-19T22:30:12.581Z,6.1
2023-02-19T22:35:15.860Z,6.8
2023-02-19T22:40:16.423Z,5.5
2023-02-19T22:45:16.951Z,5.9
2023-02-19T22:50:17.443Z,6.3
2023-02-19T22:55:17.855Z,6
2023-02-19T23:00:18.336Z,5.2
2023-02-19T23:05:19.476Z,4.2
2023-02-19T23:10:19.921Z,4.4
2023-02-19T23:15:20.336Z,4.3
2023-02-19T23:20:20.955Z,4
2023-02-19T23:25:21.436Z,3.7
2023-02-19T23:30:22.060Z,4.4
2023-02-19T23:35:22.527Z,4
2023-02-19T23:40:22.909Z,4
2023-02-19T23:45:23.352Z,4
2023-02-19T23:50:23.908Z,4.4
2023-02-19T23:55:24.406Z,3.8
